LAN2204 SUMU-SABE
Flight info
| Callsign | LAN2204 |
|---|---|
| Flight time | N/A |
| Altitude | 16000 |
| Route | DAGUS DCT UGIMI UGIMI8R |
| Aircraft | A320/M-SDE3FGHIRWY/LB1 |
Departure
| Time | 2026-04-22 17:58 |
|---|---|
| Airport | Carrasco General Cesáreo L. Berisso International Airport (SUMU) |
Arrival
| Time | N/A |
|---|---|
| Airport | Aeroparque Jorge Newbery (SABE) |
| Time | Latitude | Longitude | Altitude | Speed | Heading |
|---|---|---|---|---|---|
| 2026-04-22 17:25 | -34.83766 | -56.02040 | 82 ft | 0 kts | 142° |
| 2026-04-22 17:48 | -34.83765 | -56.02040 | 86 ft | 1 kts | 142° |
| 2026-04-22 17:49 | -34.83748 | -56.02057 | 84 ft | 4 kts | 139° |
| 2026-04-22 17:49 | -34.83728 | -56.02080 | 87 ft | 4 kts | 129° |
| 2026-04-22 17:49 | -34.83714 | -56.02107 | 87 ft | 4 kts | 101° |
| 2026-04-22 17:49 | -34.83715 | -56.02127 | 84 ft | 0 kts | 53° |
| 2026-04-22 17:50 | -34.83715 | -56.02128 | 84 ft | 0 kts | 53° |
| 2026-04-22 17:52 | -34.83709 | -56.02117 | 86 ft | 4 kts | 53° |
| 2026-04-22 17:52 | -34.83681 | -56.02071 | 83 ft | 10 kts | 53° |
| 2026-04-22 17:53 | -34.83630 | -56.01989 | 83 ft | 15 kts | 53° |
| 2026-04-22 17:53 | -34.83561 | -56.01876 | 82 ft | 17 kts | 53° |
| 2026-04-22 17:53 | -34.83488 | -56.01772 | 84 ft | 14 kts | 27° |
| 2026-04-22 17:53 | -34.83392 | -56.01811 | 83 ft | 16 kts | 326° |
| 2026-04-22 17:54 | -34.83290 | -56.01836 | 86 ft | 16 kts | 34° |
| 2026-04-22 17:54 | -34.83215 | -56.01723 | 83 ft | 18 kts | 54° |
| 2026-04-22 17:54 | -34.83136 | -56.01592 | 85 ft | 20 kts | 53° |
| 2026-04-22 17:54 | -34.83047 | -56.01447 | 83 ft | 23 kts | 53° |
| 2026-04-22 17:55 | -34.82983 | -56.01342 | 82 ft | 24 kts | 53° |
| 2026-04-22 17:55 | -34.82837 | -56.01141 | 84 ft | 21 kts | 16° |
| 2026-04-22 17:55 | -34.82761 | -56.01149 | 83 ft | 10 kts | 343° |
| 2026-04-22 17:55 | -34.82707 | -56.01209 | 83 ft | 12 kts | 284° |
| 2026-04-22 17:56 | -34.82724 | -56.01251 | 84 ft | 0 kts | 232° |
| 2026-04-22 17:56 | -34.82727 | -56.01255 | 83 ft | 2 kts | 232° |
| 2026-04-22 17:56 | -34.82735 | -56.01269 | 82 ft | 0 kts | 232° |
| 2026-04-22 17:56 | -34.82739 | -56.01275 | 82 ft | 2 kts | 232° |
| 2026-04-22 17:57 | -34.82775 | -56.01332 | 83 ft | 30 kts | 233° |
| 2026-04-22 17:57 | -34.83040 | -56.01773 | 82 ft | 95 kts | 233° |
| 2026-04-22 17:57 | -34.83531 | -56.02587 | 88 ft | 142 kts | 233° |
| 2026-04-22 17:57 | -34.84163 | -56.03541 | 584 ft | 144 kts | 234° |
| 2026-04-22 17:58 | -34.84808 | -56.04538 | 1144 ft | 152 kts | 234° |
| 2026-04-22 17:58 | -34.85457 | -56.05600 | 1689 ft | 162 kts | 230° |
| 2026-04-22 17:58 | -34.86442 | -56.06392 | 1953 ft | 188 kts | 204° |
| 2026-04-22 17:58 | -34.87777 | -56.06912 | 2346 ft | 213 kts | 199° |
| 2026-04-22 17:59 | -34.89287 | -56.07416 | 2833 ft | 235 kts | 201° |
| 2026-04-22 17:59 | -34.90695 | -56.08480 | 3678 ft | 239 kts | 227° |
| 2026-04-22 17:59 | -34.91504 | -56.10272 | 4506 ft | 250 kts | 255° |
| 2026-04-22 17:59 | -34.91650 | -56.11673 | 5133 ft | 252 kts | 262° |
| 2026-04-22 18:00 | -34.91816 | -56.13800 | 6109 ft | 253 kts | 262° |
| 2026-04-22 18:00 | -34.91999 | -56.15931 | 7072 ft | 253 kts | 262° |
| 2026-04-22 18:00 | -34.92189 | -56.18059 | 7995 ft | 253 kts | 262° |
| 2026-04-22 18:00 | -34.92382 | -56.20199 | 8922 ft | 255 kts | 262° |
| 2026-04-22 18:01 | -34.92578 | -56.22358 | 9812 ft | 257 kts | 262° |
| 2026-04-22 18:01 | -34.92775 | -56.24549 | 10425 ft | 268 kts | 262° |
| 2026-04-22 18:01 | -34.92990 | -56.26903 | 10655 ft | 291 kts | 262° |
| 2026-04-22 18:01 | -34.93219 | -56.29421 | 11079 ft | 304 kts | 263° |
| 2026-04-22 18:02 | -34.93449 | -56.32004 | 11771 ft | 309 kts | 263° |
| 2026-04-22 18:02 | -34.93680 | -56.34612 | 12513 ft | 312 kts | 264° |
| 2026-04-22 18:02 | -34.93911 | -56.37257 | 13252 ft | 314 kts | 265° |
| 2026-04-22 18:02 | -34.94141 | -56.39915 | 13980 ft | 317 kts | 265° |
| 2026-04-22 18:03 | -34.94375 | -56.42602 | 14626 ft | 320 kts | 265° |
| 2026-04-22 18:03 | -34.94609 | -56.45303 | 15263 ft | 322 kts | 265° |
| 2026-04-22 18:03 | -34.94850 | -56.48062 | 15852 ft | 325 kts | 266° |
| 2026-04-22 18:03 | -34.95086 | -56.50771 | 16036 ft | 325 kts | 266° |
| 2026-04-22 18:04 | -34.95325 | -56.53552 | 16092 ft | 336 kts | 266° |
| 2026-04-22 18:04 | -34.95569 | -56.56442 | 16095 ft | 339 kts | 266° |
| 2026-04-22 18:04 | -34.95813 | -56.59304 | 16098 ft | 340 kts | 266° |
| 2026-04-22 18:04 | -34.96060 | -56.62162 | 16092 ft | 340 kts | 266° |
| 2026-04-22 18:05 | -34.96309 | -56.65032 | 16098 ft | 340 kts | 266° |
| 2026-04-22 18:05 | -34.96554 | -56.67898 | 16098 ft | 340 kts | 266° |
| 2026-04-22 18:05 | -34.96797 | -56.70756 | 16098 ft | 339 kts | 266° |
| 2026-04-22 18:05 | -34.97039 | -56.73619 | 16098 ft | 339 kts | 266° |
| 2026-04-22 18:06 | -34.97280 | -56.76473 | 16098 ft | 339 kts | 266° |
| 2026-04-22 18:06 | -34.97519 | -56.79338 | 16098 ft | 339 kts | 266° |
| 2026-04-22 18:06 | -34.97757 | -56.82202 | 16099 ft | 340 kts | 266° |
| 2026-04-22 18:06 | -34.97998 | -56.85072 | 16113 ft | 340 kts | 266° |
| 2026-04-22 18:07 | -34.98236 | -56.87937 | 16114 ft | 339 kts | 267° |
| 2026-04-22 18:07 | -34.98277 | -56.90804 | 16114 ft | 338 kts | 271° |
| 2026-04-22 18:07 | -34.98266 | -56.93673 | 16114 ft | 338 kts | 271° |
| 2026-04-22 18:07 | -34.98255 | -56.96540 | 16114 ft | 338 kts | 271° |
| 2026-04-22 18:08 | -34.98246 | -56.99403 | 16116 ft | 338 kts | 271° |
| 2026-04-22 18:08 | -34.98237 | -57.02270 | 16117 ft | 338 kts | 271° |
| 2026-04-22 18:08 | -34.98226 | -57.05135 | 16116 ft | 338 kts | 271° |
| 2026-04-22 18:08 | -34.98213 | -57.08000 | 16116 ft | 338 kts | 271° |
| 2026-04-22 18:09 | -34.98198 | -57.10858 | 16101 ft | 337 kts | 271° |
| 2026-04-22 18:09 | -34.98183 | -57.13721 | 16110 ft | 337 kts | 271° |
| 2026-04-22 18:09 | -34.98170 | -57.16581 | 16112 ft | 337 kts | 271° |
| 2026-04-22 18:09 | -34.98158 | -57.19441 | 16113 ft | 337 kts | 271° |
| 2026-04-22 18:10 | -34.98144 | -57.22297 | 16111 ft | 337 kts | 272° |
| 2026-04-22 18:10 | -34.98127 | -57.25160 | 16117 ft | 337 kts | 272° |
| 2026-04-22 18:10 | -34.98109 | -57.28018 | 16115 ft | 337 kts | 272° |
| 2026-04-22 18:10 | -34.98090 | -57.30871 | 16115 ft | 337 kts | 272° |
| 2026-04-22 18:11 | -34.98074 | -57.33727 | 16117 ft | 337 kts | 272° |
| 2026-04-22 18:11 | -34.98056 | -57.36620 | 16117 ft | 337 kts | 272° |
| 2026-04-22 18:11 | -34.98037 | -57.39476 | 16120 ft | 337 kts | 272° |
| 2026-04-22 18:11 | -34.98019 | -57.42330 | 16121 ft | 337 kts | 272° |
| 2026-04-22 18:12 | -34.97999 | -57.45187 | 16119 ft | 337 kts | 272° |
| 2026-04-22 18:12 | -34.97975 | -57.48041 | 16120 ft | 337 kts | 272° |
| 2026-04-22 18:12 | -34.97959 | -57.49924 | 16121 ft | 337 kts | 272° |
| 2026-04-22 18:12 | -34.97926 | -57.53745 | 16125 ft | 336 kts | 272° |
| 2026-04-22 18:13 | -34.97901 | -57.56551 | 16125 ft | 336 kts | 272° |
| 2026-04-22 18:13 | -34.97877 | -57.59431 | 16018 ft | 330 kts | 272° |
| 2026-04-22 18:13 | -34.97856 | -57.62164 | 15886 ft | 315 kts | 272° |
| 2026-04-22 18:13 | -34.97738 | -57.64762 | 15738 ft | 301 kts | 281° |
| 2026-04-22 18:14 | -34.97034 | -57.67120 | 15441 ft | 296 kts | 298° |
| 2026-04-22 18:14 | -34.95919 | -57.69226 | 15008 ft | 294 kts | 300° |
| 2026-04-22 18:14 | -34.94790 | -57.71297 | 14578 ft | 294 kts | 301° |
| 2026-04-22 18:14 | -34.93653 | -57.73365 | 14137 ft | 293 kts | 301° |
| 2026-04-22 18:15 | -34.92517 | -57.75426 | 13608 ft | 294 kts | 300° |
| 2026-04-22 18:15 | -34.91374 | -57.77499 | 13038 ft | 296 kts | 300° |
| 2026-04-22 18:15 | -34.90225 | -57.79588 | 12472 ft | 295 kts | 300° |
| 2026-04-22 18:15 | -34.89106 | -57.81619 | 11924 ft | 286 kts | 299° |
| 2026-04-22 18:16 | -34.88007 | -57.83616 | 11391 ft | 284 kts | 298° |
| 2026-04-22 18:16 | -34.86887 | -57.85666 | 10841 ft | 294 kts | 298° |
| 2026-04-22 18:16 | -34.85750 | -57.87740 | 10300 ft | 294 kts | 298° |
| 2026-04-22 18:16 | -34.84632 | -57.89771 | 10171 ft | 284 kts | 297° |
| 2026-04-22 18:17 | -34.83532 | -57.91761 | 9997 ft | 276 kts | 297° |
| 2026-04-22 18:17 | -34.82472 | -57.93680 | 9675 ft | 280 kts | 297° |
| 2026-04-22 18:17 | -34.81371 | -57.95681 | 9310 ft | 279 kts | 297° |
| 2026-04-22 18:17 | -34.80287 | -57.97647 | 8805 ft | 282 kts | 298° |
| 2026-04-22 18:18 | -34.79185 | -57.99648 | 8301 ft | 286 kts | 298° |
| 2026-04-22 18:18 | -34.78072 | -58.01668 | 7807 ft | 289 kts | 298° |
| 2026-04-22 18:18 | -34.76956 | -58.03681 | 7610 ft | 282 kts | 298° |
| 2026-04-22 18:18 | -34.75865 | -58.05645 | 7234 ft | 282 kts | 298° |
| 2026-04-22 18:19 | -34.74765 | -58.07634 | 6804 ft | 284 kts | 298° |
| 2026-04-22 18:19 | -34.73662 | -58.09630 | 6365 ft | 286 kts | 298° |
| 2026-04-22 18:19 | -34.72550 | -58.11644 | 5894 ft | 288 kts | 299° |
| 2026-04-22 18:19 | -34.71434 | -58.13664 | 5411 ft | 286 kts | 299° |